createdAt,value
2019-01-25T00:01:54.857Z,12.42
2019-01-25T00:04:23.058Z,12.11
2019-01-25T00:06:50.992Z,11.97
2019-01-25T00:09:19.111Z,12.04
2019-01-25T00:11:47.262Z,12.02
2019-01-25T00:14:15.789Z,11.85
2019-01-25T00:16:44.164Z,12.01
2019-01-25T00:19:12.289Z,12.10
2019-01-25T00:21:40.384Z,12.23
2019-01-25T00:24:20.945Z,12.32
2019-01-25T00:26:49.329Z,12.04
2019-01-25T00:29:17.577Z,12.19
2019-01-25T00:31:45.685Z,12.32
2019-01-25T00:34:13.541Z,12.05
2019-01-25T00:36:41.640Z,11.95
2019-01-25T00:39:12.001Z,11.91
2019-01-25T00:41:40.330Z,12.00
2019-01-25T00:44:08.436Z,11.99
2019-01-25T00:46:36.710Z,11.82
2019-01-25T00:49:05.123Z,12.08
2019-01-25T00:51:32.968Z,12.13
2019-01-25T00:54:00.846Z,12.19
2019-01-25T00:56:28.679Z,12.13
2019-01-25T00:59:07.273Z,12.15
2019-01-25T01:01:35.111Z,12.37
2019-01-25T01:04:03.151Z,12.23
2019-01-25T01:06:31.158Z,12.35
2019-01-25T01:08:58.925Z,12.38
2019-01-25T01:11:26.683Z,12.27
2019-01-25T01:13:54.436Z,12.25
2019-01-25T01:16:22.183Z,12.38
2019-01-25T01:18:50.023Z,12.34
2019-01-25T01:21:17.764Z,12.34
2019-01-25T01:23:45.620Z,12.53
2019-01-25T01:26:13.382Z,12.64
2019-01-25T01:28:41.135Z,12.76
2019-01-25T01:31:08.887Z,12.59
2019-01-25T01:33:36.734Z,12.54
2019-01-25T01:36:04.479Z,12.58
2019-01-25T01:38:35.530Z,12.50
2019-01-25T01:41:09.401Z,12.68
2019-01-25T01:43:37.137Z,12.71
2019-01-25T01:46:04.916Z,12.67
2019-01-25T01:48:32.748Z,12.77
2019-01-25T01:51:00.884Z,12.62
2019-01-25T01:53:28.651Z,12.78
2019-01-25T01:55:56.435Z,12.71
2019-01-25T01:58:24.183Z,12.61
2019-01-25T02:00:51.931Z,12.72
2019-01-25T02:03:19.686Z,12.72
2019-01-25T02:05:47.548Z,12.67
2019-01-25T02:08:15.295Z,12.77
2019-01-25T02:10:43.056Z,12.80
2019-01-25T02:13:11.060Z,12.74
2019-01-25T02:15:38.831Z,12.83
2019-01-25T02:18:06.611Z,12.80
2019-01-25T02:20:34.373Z,12.67
2019-01-25T02:23:02.252Z,12.41
2019-01-25T02:25:40.955Z,12.52
2019-01-25T02:28:08.728Z,12.58
2019-01-25T02:30:36.527Z,12.55
2019-01-25T02:33:04.427Z,12.52
2019-01-25T02:38:46.484Z,12.11
2019-01-25T02:41:14.355Z,12.55
2019-01-25T02:43:42.115Z,12.65
2019-01-25T02:46:10.119Z,12.72
2019-01-25T02:48:37.976Z,12.78
2019-01-25T02:51:05.921Z,12.82
2019-01-25T02:53:33.670Z,12.72
2019-01-25T02:56:01.523Z,12.58
2019-01-25T02:58:29.272Z,12.55
2019-01-25T03:00:57.089Z,12.36
2019-01-25T03:03:24.858Z,12.42
2019-01-25T03:05:52.700Z,12.25
2019-01-25T03:08:20.513Z,11.91
2019-01-25T03:10:48.336Z,12.05
2019-01-25T03:13:16.071Z,12.41
2019-01-25T03:15:58.053Z,12.46
2019-01-25T03:18:19.426Z,12.49
2019-01-25T03:20:47.333Z,12.14
2019-01-25T03:23:15.173Z,12.28
2019-01-25T03:25:42.997Z,12.41
2019-01-25T03:28:10.715Z,12.40
2019-01-25T03:30:38.545Z,12.20
2019-01-25T03:33:06.555Z,12.49
2019-01-25T03:35:34.389Z,12.63
2019-01-25T03:38:02.155Z,12.68
2019-01-25T03:40:29.946Z,12.80
2019-01-25T03:42:57.756Z,12.69
2019-01-25T03:45:25.671Z,12.83
2019-01-25T03:47:53.520Z,12.83
2019-01-25T03:50:22.410Z,12.81
2019-01-25T03:52:50.130Z,12.75
2019-01-25T03:55:17.863Z,12.93
2019-01-25T03:58:03.087Z,12.79
2019-01-25T04:00:30.880Z,12.80
2019-01-25T04:02:58.796Z,12.86
2019-01-25T04:05:26.745Z,12.90
2019-01-25T04:07:54.538Z,12.92
2019-01-25T04:10:23.114Z,12.92
2019-01-25T04:12:50.938Z,12.86
2019-01-25T04:15:19.766Z,12.52
2019-01-25T04:17:47.540Z,12.79
2019-01-25T04:20:15.710Z,12.80
2019-01-25T04:22:43.461Z,12.83
2019-01-25T04:25:12.317Z,12.86
2019-01-25T04:27:40.187Z,12.85
2019-01-25T04:30:09.402Z,12.87
2019-01-25T04:32:44.964Z,12.85
2019-01-25T04:35:12.873Z,12.83
2019-01-25T04:37:40.640Z,12.89
2019-01-25T04:40:09.830Z,12.88
2019-01-25T04:42:38.084Z,12.83
2019-01-25T04:45:06.248Z,12.70
2019-01-25T04:47:33.967Z,12.52
2019-01-25T04:50:01.759Z,12.77
2019-01-25T04:52:29.499Z,12.76
2019-01-25T04:54:57.284Z,12.74
2019-01-25T04:57:25.339Z,12.79
2019-01-25T04:59:54.671Z,12.79
2019-01-25T05:02:24.665Z,12.77
2019-01-25T05:04:52.453Z,12.75
2019-01-25T05:07:20.391Z,12.28
2019-01-25T05:12:22.871Z,12.77
2019-01-25T05:14:50.602Z,12.80
2019-01-25T05:17:18.737Z,12.82
2019-01-25T05:19:46.472Z,12.80
2019-01-25T05:22:14.294Z,12.73
2019-01-25T05:24:42.004Z,12.86
2019-01-25T05:27:09.748Z,12.79
2019-01-25T05:30:06.184Z,12.82
2019-01-25T05:32:34.186Z,12.77
2019-01-25T05:35:01.912Z,12.77
2019-01-25T05:37:36.649Z,12.78
2019-01-25T05:40:05.121Z,11.56
2019-01-25T05:42:32.832Z,12.82
2019-01-25T05:45:02.738Z,12.80
2019-01-25T05:47:30.474Z,12.83
2019-01-25T05:49:58.491Z,12.75
2019-01-25T05:52:26.207Z,12.73
2019-01-25T05:54:53.962Z,12.79
2019-01-25T05:57:21.698Z,12.75
2019-01-25T05:59:50.075Z,12.76
2019-01-25T06:02:17.931Z,12.82
2019-01-25T06:04:45.764Z,12.83
2019-01-25T06:07:13.602Z,12.88
2019-01-25T06:09:41.408Z,12.79
2019-01-25T06:12:09.192Z,12.74
2019-01-25T06:14:48.951Z,12.75
2019-01-25T06:17:12.786Z,12.75
2019-01-25T06:19:40.632Z,12.73
2019-01-25T06:22:08.455Z,12.79
2019-01-25T06:24:36.288Z,12.90
2019-01-25T06:27:04.103Z,12.88
2019-01-25T06:29:32.347Z,12.87
2019-01-25T06:32:00.357Z,12.90
2019-01-25T06:34:28.168Z,12.83
2019-01-25T06:36:55.960Z,12.88
2019-01-25T06:39:23.843Z,12.82
2019-01-25T06:41:51.804Z,12.83
2019-01-25T06:44:19.583Z,12.88
2019-01-25T06:46:47.411Z,12.21
2019-01-25T06:49:15.243Z,12.89
2019-01-25T06:51:43.073Z,12.94
2019-01-25T06:54:11.029Z,13.00
2019-01-25T06:56:58.104Z,13.02
2019-01-25T06:59:33.941Z,13.02
2019-01-25T07:02:06.283Z,13.07
2019-01-25T07:04:46.137Z,13.13
2019-01-25T07:08:13.250Z,13.08
2019-01-25T07:10:04.181Z,13.09
2019-01-25T07:12:32.196Z,13.09
2019-01-25T07:15:00.219Z,13.14
2019-01-25T07:17:47.560Z,13.15
2019-01-25T07:20:15.619Z,13.12
2019-01-25T07:22:43.851Z,13.03
2019-01-25T07:25:16.393Z,13.09
2019-01-25T07:30:59.289Z,13.07
2019-01-25T07:33:32.571Z,13.13
2019-01-25T07:36:09.176Z,13.14
2019-01-25T07:38:59.618Z,13.17
2019-01-25T07:41:23.629Z,13.07
2019-01-25T07:43:50.960Z,12.89
2019-01-25T07:46:30.512Z,13.11
2019-01-25T07:49:03.896Z,13.10
2019-01-25T07:55:03.333Z,13.07
2019-01-25T08:07:21.951Z,13.19
2019-01-25T08:20:19.591Z,13.03
2019-01-25T08:26:20.920Z,13.10
2019-01-25T08:28:51.853Z,13.14
2019-01-25T08:31:19.910Z,13.10
2019-01-25T08:38:06.793Z,13.01
2019-01-25T08:40:41.887Z,12.95
2019-01-25T08:43:19.933Z,13.04
2019-01-25T08:46:25.621Z,12.96
2019-01-25T08:56:15.013Z,13.11
2019-01-25T09:13:43.967Z,13.08
2019-01-25T09:15:27.603Z,13.08
2019-01-25T09:25:00.330Z,13.08
2019-01-25T09:28:55.472Z,13.11
2019-01-25T09:32:23.677Z,13.06
2019-01-25T09:54:02.663Z,13.04
2019-01-25T09:56:55.735Z,12.40
2019-01-25T09:59:24.092Z,13.05
2019-01-25T10:02:09.557Z,13.04
2019-01-25T10:04:47.829Z,13.08
2019-01-25T10:07:15.979Z,13.10
2019-01-25T10:10:03.351Z,12.62
2019-01-25T10:12:46.054Z,13.03
2019-01-25T10:15:36.304Z,13.01
2019-01-25T10:18:24.684Z,13.06
2019-01-25T10:21:04.192Z,13.08
2019-01-25T10:23:32.257Z,13.08
2019-01-25T10:26:03.920Z,13.08
2019-01-25T10:28:34.617Z,13.13
2019-01-25T10:31:02.620Z,13.13
2019-01-25T10:33:30.579Z,13.06
2019-01-25T10:35:58.707Z,13.07
2019-01-25T10:38:55.242Z,13.06
2019-01-25T10:41:31.349Z,12.62
2019-01-25T10:44:10.099Z,12.71
2019-01-25T10:46:39.025Z,13.15
2019-01-25T10:49:07.914Z,12.70
2019-01-25T10:51:35.851Z,12.98
2019-01-25T10:54:28.490Z,13.11
2019-01-25T10:56:57.125Z,13.15
2019-01-25T10:59:30.350Z,13.17
2019-01-25T11:02:22.235Z,13.18
2019-01-25T11:05:28.286Z,13.24
2019-01-25T11:07:56.309Z,13.21
2019-01-25T11:10:26.217Z,13.16
2019-01-25T11:13:00.839Z,13.23
2019-01-25T11:15:24.225Z,13.16
2019-01-25T11:17:52.057Z,13.18
2019-01-25T11:20:20.408Z,13.20
2019-01-25T11:23:26.215Z,13.17
2019-01-25T11:25:55.342Z,13.20
2019-01-25T11:28:29.497Z,12.79
2019-01-25T11:31:33.117Z,12.77
2019-01-25T11:36:24.115Z,13.20
2019-01-25T11:38:55.689Z,13.28
2019-01-25T11:41:32.793Z,13.16
2019-01-25T11:44:43.476Z,13.12
2019-01-25T11:47:19.211Z,13.13
2019-01-25T11:49:48.224Z,13.14
2019-01-25T11:52:16.212Z,13.15
2019-01-25T11:54:55.564Z,13.13
2019-01-25T12:00:36.155Z,13.05
2019-01-25T12:03:19.288Z,13.15
2019-01-25T12:05:56.928Z,12.73
2019-01-25T12:08:45.361Z,13.12
2019-01-25T12:11:26.900Z,13.11
2019-01-25T12:14:01.207Z,12.31
2019-01-25T12:16:40.917Z,13.04
2019-01-25T12:19:43.066Z,13.01
2019-01-25T12:22:08.396Z,13.05
2019-01-25T12:27:50.081Z,13.06
2019-01-25T12:30:38.222Z,12.56
2019-01-25T12:33:07.170Z,13.09
2019-01-25T12:35:36.200Z,13.11
2019-01-25T12:38:16.868Z,13.05
2019-01-25T12:41:11.280Z,13.07
2019-01-25T12:43:42.400Z,13.15
2019-01-25T12:46:25.442Z,13.09
2019-01-25T12:49:00.663Z,12.80
2019-01-25T13:00:21.876Z,12.68
2019-01-25T13:03:02.844Z,12.60
2019-01-25T13:05:34.345Z,12.65
2019-01-25T13:11:01.210Z,13.10
2019-01-25T13:13:33.719Z,13.08
2019-01-25T13:16:15.982Z,13.13
2019-01-25T13:18:50.286Z,13.10
2019-01-25T13:21:59.579Z,13.05
2019-01-25T13:24:44.418Z,13.14
2019-01-25T13:27:12.764Z,13.11
2019-01-25T13:29:49.477Z,13.08
2019-01-25T13:32:52.658Z,13.14
2019-01-25T13:35:40.235Z,13.05
2019-01-25T13:38:08.808Z,13.04
2019-01-25T13:40:59.329Z,12.92
2019-01-25T13:43:39.001Z,13.04
2019-01-25T13:46:13.624Z,12.98
2019-01-25T13:48:41.695Z,12.98
2019-01-25T13:51:21.294Z,12.99
2019-01-25T13:57:13.371Z,13.09
2019-01-25T13:59:41.803Z,13.08
2019-01-25T14:02:34.560Z,13.03
2019-01-25T14:05:16.768Z,13.04
2019-01-25T14:08:02.666Z,12.68
2019-01-25T14:23:04.927Z,13.01
2019-01-25T14:25:33.520Z,13.01
2019-01-25T14:28:11.271Z,13.08
2019-01-25T14:30:43.818Z,13.01
2019-01-25T14:33:14.835Z,12.98
2019-01-25T14:35:43.197Z,13.01
2019-01-25T14:38:30.576Z,13.07
2019-01-25T14:41:10.413Z,12.63
2019-01-25T14:43:40.206Z,13.13
2019-01-25T14:46:19.553Z,13.05
2019-01-25T14:48:49.971Z,13.07
2019-01-25T14:51:38.292Z,12.97
2019-01-25T14:54:28.527Z,12.96
2019-01-25T14:56:56.472Z,12.91
2019-01-25T14:59:28.999Z,12.98
2019-01-25T15:01:59.814Z,13.05
2019-01-25T15:04:59.666Z,12.79
2019-01-25T15:07:27.570Z,11.63
2019-01-25T15:09:58.792Z,12.99
2019-01-25T15:12:27.098Z,12.48
2019-01-25T15:14:55.513Z,12.97
2019-01-25T15:17:29.428Z,13.01
2019-01-25T15:19:57.162Z,13.04
2019-01-25T15:22:27.597Z,12.97
2019-01-25T15:25:15.079Z,13.01
2019-01-25T15:27:43.855Z,13.02
2019-01-25T15:30:16.829Z,13.00
2019-01-25T15:32:51.151Z,13.00
2019-01-25T15:35:20.140Z,12.99
2019-01-25T15:37:48.238Z,12.92
2019-01-25T15:40:16.305Z,12.94
2019-01-25T15:42:44.200Z,12.97
2019-01-25T15:45:12.578Z,13.03
2019-01-25T15:50:33.657Z,12.98
2019-01-25T15:53:01.494Z,12.97
2019-01-25T15:55:29.473Z,12.92
2019-01-25T15:57:57.768Z,12.95
2019-01-25T16:00:26.549Z,12.96
2019-01-25T16:02:54.693Z,12.96
2019-01-25T16:05:23.028Z,12.90
2019-01-25T16:07:51.697Z,12.82
2019-01-25T16:10:20.245Z,12.92
2019-01-25T16:13:03.434Z,12.87
2019-01-25T16:15:37.068Z,12.78
2019-01-25T16:18:08.481Z,12.85
2019-01-25T16:20:36.434Z,12.95
2019-01-25T16:23:04.267Z,12.96
2019-01-25T16:25:33.961Z,12.98
2019-01-25T16:28:48.673Z,12.93
2019-01-25T16:31:39.669Z,12.95
2019-01-25T16:34:12.179Z,12.89
2019-01-25T16:39:31.757Z,12.80
2019-01-25T16:42:11.694Z,12.85
2019-01-25T16:44:40.123Z,12.83
2019-01-25T16:47:14.465Z,12.86
2019-01-25T16:49:48.653Z,12.73
2019-01-25T16:52:19.816Z,12.80
2019-01-25T16:57:36.824Z,12.82
2019-01-25T17:00:06.651Z,12.82
2019-01-25T17:02:43.973Z,12.85
2019-01-25T17:05:49.629Z,12.82
2019-01-25T17:07:57.436Z,12.78
2019-01-25T17:20:56.355Z,12.83
2019-01-25T17:23:24.263Z,12.85
2019-01-25T17:26:32.672Z,12.80
2019-01-25T17:42:06.809Z,12.59
2019-01-25T17:47:54.445Z,12.59
2019-01-25T17:50:25.484Z,12.61
2019-01-25T17:52:54.185Z,12.56
2019-01-25T17:55:22.503Z,12.48
2019-01-25T17:57:57.883Z,12.44
2019-01-25T18:00:35.475Z,12.44
2019-01-25T18:03:46.927Z,12.49
2019-01-25T18:06:21.131Z,12.43
2019-01-25T18:08:51.752Z,12.32
2019-01-25T18:11:20.280Z,12.41
2019-01-25T18:20:51.811Z,11.76
2019-01-25T18:30:22.220Z,12.34
2019-01-25T18:41:02.111Z,12.33
2019-01-25T18:43:05.768Z,12.38
2019-01-25T18:45:39.837Z,12.40
2019-01-25T18:51:42.515Z,12.23
2019-01-25T18:54:26.902Z,12.27
2019-01-25T18:57:34.561Z,12.32
2019-01-25T19:06:30.890Z,12.35
2019-01-25T19:08:59.054Z,12.31
2019-01-25T19:11:26.848Z,12.26
2019-01-25T19:14:19.796Z,12.20
2019-01-25T19:16:48.100Z,12.24
2019-01-25T19:19:15.934Z,11.44
2019-01-25T19:21:44.369Z,12.26
2019-01-25T19:24:12.622Z,12.20
2019-01-25T19:26:40.579Z,12.16
2019-01-25T19:29:21.480Z,12.23
2019-01-25T19:31:49.290Z,12.24
2019-01-25T19:34:45.695Z,12.15
2019-01-25T19:37:14.227Z,12.14
2019-01-25T19:39:42.076Z,12.08
2019-01-25T19:42:10.360Z,12.11
2019-01-25T19:44:39.087Z,12.11
2019-01-25T19:47:07.409Z,12.05
2019-01-25T19:50:03.634Z,12.11
2019-01-25T19:58:54.727Z,11.58
2019-01-25T20:01:20.120Z,11.98
2019-01-25T20:03:54.334Z,11.96
2019-01-25T20:06:22.192Z,11.93
2019-01-25T20:08:50.258Z,12.01
2019-01-25T20:11:18.323Z,12.06
2019-01-25T20:13:46.434Z,12.06
2019-01-25T20:16:26.584Z,11.98
2019-01-25T20:21:47.480Z,11.79
2019-01-25T20:24:23.636Z,11.79
2019-01-25T20:26:50.695Z,12.10
2019-01-25T20:29:18.873Z,11.99
2019-01-25T20:31:46.695Z,12.06
2019-01-25T20:34:39.912Z,12.03
2019-01-25T20:37:07.767Z,12.07
2019-01-25T20:39:35.723Z,11.96
2019-01-25T20:42:03.568Z,11.94
2019-01-25T20:44:31.342Z,11.89
2019-01-25T20:49:34.370Z,11.89
2019-01-25T20:52:02.231Z,11.96
2019-01-25T20:54:30.220Z,11.96
2019-01-25T20:57:12.401Z,11.87
2019-01-25T21:00:13.935Z,11.83
2019-01-25T21:02:42.064Z,11.84
2019-01-25T21:05:09.929Z,11.84
2019-01-25T21:07:38.708Z,11.81
2019-01-25T21:10:08.020Z,11.80
2019-01-25T21:12:47.642Z,11.80
2019-01-25T21:15:16.076Z,11.73
2019-01-25T21:17:44.370Z,11.70
2019-01-25T21:20:13.422Z,11.74
2019-01-25T21:22:41.496Z,11.69
2019-01-25T21:25:09.276Z,10.24
2019-01-25T21:27:37.380Z,11.70
2019-01-25T21:30:05.918Z,11.53
2019-01-25T21:32:33.728Z,11.74
2019-01-25T21:35:01.746Z,11.65
2019-01-25T21:37:30.079Z,11.65
2019-01-25T21:39:58.379Z,11.67
2019-01-25T21:42:26.931Z,11.61
2019-01-25T21:44:55.612Z,11.62
2019-01-25T21:47:47.745Z,11.41
2019-01-25T21:50:13.892Z,11.63
2019-01-25T21:52:41.730Z,11.58
2019-01-25T21:55:10.831Z,11.63
2019-01-25T21:57:38.717Z,11.64
2019-01-25T22:00:14.809Z,11.68
2019-01-25T22:02:43.169Z,11.63
2019-01-25T22:05:11.573Z,11.66
2019-01-25T22:07:40.109Z,11.64
2019-01-25T22:10:35.901Z,11.68
2019-01-25T22:13:17.359Z,11.63
2019-01-25T22:15:42.652Z,11.58
2019-01-25T22:18:10.929Z,11.62
2019-01-25T22:20:39.069Z,11.53
2019-01-25T22:23:07.239Z,11.55
2019-01-25T22:26:14.144Z,11.58
2019-01-25T22:28:42.452Z,11.53
2019-01-25T22:31:10.613Z,11.63
2019-01-25T22:33:38.628Z,11.55
2019-01-25T22:36:06.364Z,11.55
2019-01-25T22:38:34.658Z,11.58
2019-01-25T22:41:02.672Z,11.55
2019-01-25T22:43:31.161Z,11.53
2019-01-25T22:45:59.063Z,11.68
2019-01-25T22:48:27.464Z,10.47
2019-01-25T22:51:29.563Z,11.57
2019-01-25T22:53:58.506Z,11.64
2019-01-25T22:56:29.180Z,11.74
2019-01-25T22:58:58.981Z,11.70
2019-01-25T23:01:31.726Z,11.57
2019-01-25T23:04:24.675Z,11.63
2019-01-25T23:10:27.329Z,11.73
2019-01-25T23:12:55.219Z,11.69
2019-01-25T23:15:23.300Z,11.67
2019-01-25T23:17:51.345Z,11.68
2019-01-25T23:20:19.209Z,11.62
2019-01-25T23:22:47.047Z,11.63
2019-01-25T23:25:15.022Z,11.60
2019-01-25T23:27:43.336Z,11.64
2019-01-25T23:30:47.084Z,11.68
2019-01-25T23:32:46.259Z,11.68
